sensor_id;sensor_type;location;lat;lon;timestamp;pressure;altitude;pressure_sealevel;temperature;humidity
7480;BME280;3781;42.272;22.658;2023-03-20T07:18:34;94940.81;;;9.83;54.52
7480;BME280;3781;42.272;22.658;2023-03-20T07:21:03;94935.53;;;10.59;53.50
7480;BME280;3781;42.272;22.658;2023-03-20T07:23:31;94909.06;;;10.75;53.11
7480;BME280;3781;42.272;22.658;2023-03-20T07:25:59;94922.06;;;10.95;52.11
7480;BME280;3781;42.272;22.658;2023-03-20T07:28:26;94907.06;;;11.38;51.51
7480;BME280;3781;42.272;22.658;2023-03-20T07:30:52;94920.25;;;12.05;50.21
7480;BME280;3781;42.272;22.658;2023-03-20T07:33:19;94925.59;;;12.71;48.49
7480;BME280;3781;42.272;22.658;2023-03-20T07:35:51;94926.38;;;13.56;46.64
7480;BME280;3781;42.272;22.658;2023-03-20T07:38:17;94927.28;;;13.92;44.08
7480;BME280;3781;42.272;22.658;2023-03-20T07:40:44;94927.53;;;14.16;43.33
7480;BME280;3781;42.272;22.658;2023-03-20T07:43:13;94923.84;;;14.71;41.44
7480;BME280;3781;42.272;22.658;2023-03-20T07:45:40;94928.47;;;14.60;43.07
7480;BME280;3781;42.272;22.658;2023-03-20T07:48:06;94927.50;;;14.61;41.49
7480;BME280;3781;42.272;22.658;2023-03-20T07:50:33;94929.66;;;15.08;41.41
7480;BME280;3781;42.272;22.658;2023-03-20T07:53:01;94927.50;;;15.04;42.29
7480;BME280;3781;42.272;22.658;2023-03-20T07:55:27;94927.88;;;16.02;39.14
7480;BME280;3781;42.272;22.658;2023-03-20T07:57:54;94925.72;;;16.80;38.82
7480;BME280;3781;42.272;22.658;2023-03-20T08:00:21;94911.63;;;17.13;37.29
7480;BME280;3781;42.272;22.658;2023-03-20T08:02:47;94920.00;;;18.18;35.65
7480;BME280;3781;42.272;22.658;2023-03-20T08:05:15;94921.03;;;17.70;36.54
7480;BME280;3781;42.272;22.658;2023-03-20T08:07:41;94925.03;;;19.18;34.00
7480;BME280;3781;42.272;22.658;2023-03-20T08:10:11;94925.81;;;18.90;32.80
7480;BME280;3781;42.272;22.658;2023-03-20T08:12:38;94931.47;;;19.38;32.56
7480;BME280;3781;42.272;22.658;2023-03-20T08:15:05;94934.66;;;19.92;31.67
7480;BME280;3781;42.272;22.658;2023-03-20T08:17:32;94929.47;;;20.28;30.77
7480;BME280;3781;42.272;22.658;2023-03-20T08:19:59;94918.06;;;18.88;32.95
7480;BME280;3781;42.272;22.658;2023-03-20T08:22:25;94920.69;;;17.73;34.27
7480;BME280;3781;42.272;22.658;2023-03-20T08:24:52;94922.06;;;17.37;35.26
7480;BME280;3781;42.272;22.658;2023-03-20T08:27:20;94925.22;;;16.92;35.78
7480;BME280;3781;42.272;22.658;2023-03-20T08:29:47;94925.88;;;17.26;36.25
7480;BME280;3781;42.272;22.658;2023-03-20T08:32:14;94924.19;;;18.27;34.31
7480;BME280;3781;42.272;22.658;2023-03-20T08:34:40;94915.72;;;19.16;32.63
7480;BME280;3781;42.272;22.658;2023-03-20T08:37:07;94917.44;;;20.40;30.65
7480;BME280;3781;42.272;22.658;2023-03-20T08:39:34;94919.06;;;20.41;30.02
7480;BME280;3781;42.272;22.658;2023-03-20T08:42:02;94918.31;;;20.47;29.69
7480;BME280;3781;42.272;22.658;2023-03-20T08:44:30;94926.78;;;21.21;28.81
7480;BME280;3781;42.272;22.658;2023-03-20T08:46:57;94918.47;;;21.24;29.56
7480;BME280;3781;42.272;22.658;2023-03-20T08:49:24;94909.56;;;20.61;29.85
7480;BME280;3781;42.272;22.658;2023-03-20T08:51:52;94917.69;;;20.45;30.50
7480;BME280;3781;42.272;22.658;2023-03-20T08:54:19;94911.88;;;21.41;29.82
7480;BME280;3781;42.272;22.658;2023-03-20T08:56:46;94910.94;;;22.77;27.67
7480;BME280;3781;42.272;22.658;2023-03-20T08:59:12;94912.22;;;21.87;28.63
7480;BME280;3781;42.272;22.658;2023-03-20T09:01:40;94901.28;;;21.96;28.98
7480;BME280;3781;42.272;22.658;2023-03-20T09:04:07;94905.97;;;22.55;28.26
7480;BME280;3781;42.272;22.658;2023-03-20T09:06:35;94895.34;;;22.41;28.87
7480;BME280;3781;42.272;22.658;2023-03-20T09:09:03;94883.34;;;21.30;29.73
7480;BME280;3781;42.272;22.658;2023-03-20T09:11:30;94892.38;;;20.15;31.33
7480;BME280;3781;42.272;22.658;2023-03-20T09:13:57;94883.03;;;20.48;30.82
7480;BME280;3781;42.272;22.658;2023-03-20T09:16:24;94883.63;;;20.92;30.27
7480;BME280;3781;42.272;22.658;2023-03-20T09:18:52;94878.16;;;21.77;29.95
7480;BME280;3781;42.272;22.658;2023-03-20T09:21:19;94873.69;;;22.98;27.94
7480;BME280;3781;42.272;22.658;2023-03-20T09:23:46;94873.00;;;22.57;28.71
7480;BME280;3781;42.272;22.658;2023-03-20T09:26:13;94868.38;;;22.66;27.85
7480;BME280;3781;42.272;22.658;2023-03-20T09:28:39;94861.22;;;23.51;26.95
7480;BME280;3781;42.272;22.658;2023-03-20T09:31:06;94863.16;;;23.95;27.02
7480;BME280;3781;42.272;22.658;2023-03-20T09:33:33;94865.94;;;23.23;26.96
7480;BME280;3781;42.272;22.658;2023-03-20T09:36:01;94845.25;;;22.33;28.51
7480;BME280;3781;42.272;22.658;2023-03-20T09:38:28;94846.78;;;22.02;28.34
7480;BME280;3781;42.272;22.658;2023-03-20T09:40:55;94850.00;;;23.30;26.99
7480;BME280;3781;42.272;22.658;2023-03-20T09:43:43;94852.09;;;24.55;25.13
7480;BME280;3781;42.272;22.658;2023-03-20T09:46:22;94846.75;;;24.24;25.34
7480;BME280;3781;42.272;22.658;2023-03-20T09:48:58;94838.81;;;23.08;26.14
7480;BME280;3781;42.272;22.658;2023-03-20T09:51:33;94834.06;;;22.31;26.43
7480;BME280;3781;42.272;22.658;2023-03-20T09:54:05;94829.47;;;22.73;26.41
7480;BME280;3781;42.272;22.658;2023-03-20T09:56:33;94835.97;;;23.55;25.90
7480;BME280;3781;42.272;22.658;2023-03-20T09:59:01;94820.19;;;24.93;24.82
7480;BME280;3781;42.272;22.658;2023-03-20T10:01:32;94811.00;;;23.69;24.99
7480;BME280;3781;42.272;22.658;2023-03-20T10:04:07;94825.97;;;23.31;25.09
7480;BME280;3781;42.272;22.658;2023-03-20T10:06:36;94809.91;;;22.87;26.27
7480;BME280;3781;42.272;22.658;2023-03-20T10:09:12;94808.50;;;23.87;25.34
7480;BME280;3781;42.272;22.658;2023-03-20T10:12:03;94815.78;;;24.43;24.06
7480;BME280;3781;42.272;22.658;2023-03-20T10:14:42;94802.16;;;24.95;24.41
7480;BME280;3781;42.272;22.658;2023-03-20T10:17:22;94810.13;;;23.88;25.14
7480;BME280;3781;42.272;22.658;2023-03-20T10:19:54;94805.25;;;24.30;24.51
7480;BME280;3781;42.272;22.658;2023-03-20T10:22:26;94801.66;;;23.60;24.71
7480;BME280;3781;42.272;22.658;2023-03-20T10:24:58;94784.78;;;24.37;24.61
7480;BME280;3781;42.272;22.658;2023-03-20T10:27:30;94781.31;;;25.78;23.01
7480;BME280;3781;42.272;22.658;2023-03-20T10:30:14;94771.19;;;26.34;22.78
7480;BME280;3781;42.272;22.658;2023-03-20T10:32:50;94771.84;;;26.18;21.93
7480;BME280;3781;42.272;22.658;2023-03-20T10:35:26;94772.06;;;27.34;21.06
7480;BME280;3781;42.272;22.658;2023-03-20T10:38:06;94749.09;;;27.56;18.86
7480;BME280;3781;42.272;22.658;2023-03-20T10:40:37;94751.06;;;28.40;17.25
7480;BME280;3781;42.272;22.658;2023-03-20T10:43:12;94759.06;;;27.26;19.52
7480;BME280;3781;42.272;22.658;2023-03-20T10:45:42;94768.97;;;26.72;19.06
7480;BME280;3781;42.272;22.658;2023-03-20T10:48:15;94754.41;;;25.50;20.11
7480;BME280;3781;42.272;22.658;2023-03-20T10:50:45;94750.13;;;26.74;20.05
7480;BME280;3781;42.272;22.658;2023-03-20T10:53:31;94737.06;;;27.42;19.21
7480;BME280;3781;42.272;22.658;2023-03-20T10:56:02;94749.09;;;27.56;19.29
7480;BME280;3781;42.272;22.658;2023-03-20T10:58:34;94738.00;;;27.36;19.34
7480;BME280;3781;42.272;22.658;2023-03-20T11:01:02;94734.50;;;27.47;19.93
7480;BME280;3781;42.272;22.658;2023-03-20T11:03:32;94732.66;;;27.99;19.52
7480;BME280;3781;42.272;22.658;2023-03-20T11:06:06;94724.53;;;28.67;19.02
7480;BME280;3781;42.272;22.658;2023-03-20T11:08:39;94721.00;;;28.50;19.16
7480;BME280;3781;42.272;22.658;2023-03-20T11:11:07;94723.69;;;28.50;18.75
7480;BME280;3781;42.272;22.658;2023-03-20T11:13:37;94709.09;;;28.41;19.61
7480;BME280;3781;42.272;22.658;2023-03-20T11:16:13;94708.81;;;28.87;18.31
7480;BME280;3781;42.272;22.658;2023-03-20T11:18:42;94711.41;;;28.82;18.62
7480;BME280;3781;42.272;22.658;2023-03-20T11:21:15;94705.16;;;28.15;18.09
7480;BME280;3781;42.272;22.658;2023-03-20T11:23:44;94675.72;;;27.70;19.10
7480;BME280;3781;42.272;22.658;2023-03-20T11:26:12;94683.03;;;28.48;18.71
7480;BME280;3781;42.272;22.658;2023-03-20T11:28:45;94681.59;;;27.44;19.22
7480;BME280;3781;42.272;22.658;2023-03-20T11:31:18;94683.47;;;27.09;18.55
7480;BME280;3781;42.272;22.658;2023-03-20T11:33:50;94673.28;;;27.06;19.59
7480;BME280;3781;42.272;22.658;2023-03-20T11:36:23;94672.22;;;27.18;19.10
7480;BME280;3781;42.272;22.658;2023-03-20T11:38:52;94653.47;;;26.55;19.19
7480;BME280;3781;42.272;22.658;2023-03-20T11:41:25;94657.91;;;27.59;19.04
7480;BME280;3781;42.272;22.658;2023-03-20T11:43:52;94651.69;;;27.19;19.20
7480;BME280;3781;42.272;22.658;2023-03-20T11:46:20;94650.63;;;29.32;17.08
7480;BME280;3781;42.272;22.658;2023-03-20T11:49:01;94644.59;;;29.63;17.59
7480;BME280;3781;42.272;22.658;2023-03-20T11:51:29;94634.69;;;30.34;17.36
7480;BME280;3781;42.272;22.658;2023-03-20T11:54:02;94637.28;;;30.92;16.26
7480;BME280;3781;42.272;22.658;2023-03-20T11:56:31;94628.91;;;29.94;17.13
7480;BME280;3781;42.272;22.658;2023-03-20T11:59:01;94624.06;;;29.47;17.23
7480;BME280;3781;42.272;22.658;2023-03-20T12:01:37;94625.22;;;28.25;17.59
7480;BME280;3781;42.272;22.658;2023-03-20T12:04:12;94610.41;;;29.05;17.68
7480;BME280;3781;42.272;22.658;2023-03-20T12:06:46;94623.31;;;30.27;16.72
7480;BME280;3781;42.272;22.658;2023-03-20T12:09:39;94619.41;;;30.08;17.75
7480;BME280;3781;42.272;22.658;2023-03-20T12:12:14;94622.38;;;30.38;16.71
7480;BME280;3781;42.272;22.658;2023-03-20T12:14:49;94612.19;;;30.40;16.46
7480;BME280;3781;42.272;22.658;2023-03-20T12:17:38;94603.91;;;30.15;16.31
7480;BME280;3781;42.272;22.658;2023-03-20T12:20:18;94601.38;;;28.90;17.80
7480;BME280;3781;42.272;22.658;2023-03-20T12:22:53;94595.28;;;27.50;18.79
7480;BME280;3781;42.272;22.658;2023-03-20T12:25:25;94588.94;;;28.46;18.93
7480;BME280;3781;42.272;22.658;2023-03-20T12:28:00;94592.00;;;29.52;18.20
7480;BME280;3781;42.272;22.658;2023-03-20T12:30:44;94586.38;;;28.89;18.28
7480;BME280;3781;42.272;22.658;2023-03-20T12:33:19;94569.75;;;29.03;17.93
7480;BME280;3781;42.272;22.658;2023-03-20T12:35:51;94579.66;;;30.00;17.96
7480;BME280;3781;42.272;22.658;2023-03-20T12:38:23;94566.31;;;29.51;18.33
7480;BME280;3781;42.272;22.658;2023-03-20T12:40:57;94564.78;;;29.60;18.28
7480;BME280;3781;42.272;22.658;2023-03-20T12:43:34;94565.94;;;30.96;17.46
7480;BME280;3781;42.272;22.658;2023-03-20T12:46:23;94561.16;;;31.80;16.92
7480;BME280;3781;42.272;22.658;2023-03-20T12:48:56;94549.00;;;31.48;17.33
7480;BME280;3781;42.272;22.658;2023-03-20T12:51:33;94545.34;;;30.65;17.45
7480;BME280;3781;42.272;22.658;2023-03-20T12:54:12;94538.19;;;30.34;17.86
7480;BME280;3781;42.272;22.658;2023-03-20T12:56:54;94536.59;;;29.26;18.82
7480;BME280;3781;42.272;22.658;2023-03-20T12:59:28;94525.22;;;28.92;18.57
7480;BME280;3781;42.272;22.658;2023-03-20T13:02:11;94522.16;;;29.27;19.33
7480;BME280;3781;42.272;22.658;2023-03-20T13:05:06;94521.91;;;29.82;18.18
7480;BME280;3781;42.272;22.658;2023-03-20T13:07:48;94513.25;;;30.75;18.02
7480;BME280;3781;42.272;22.658;2023-03-20T13:10:18;94512.25;;;32.69;16.32
7480;BME280;3781;42.272;22.658;2023-03-20T13:12:56;94508.75;;;31.63;17.18
7480;BME280;3781;42.272;22.658;2023-03-20T13:15:35;94515.78;;;32.64;15.97
7480;BME280;3781;42.272;22.658;2023-03-20T13:18:09;94510.78;;;33.66;15.70
7480;BME280;3781;42.272;22.658;2023-03-20T13:20:41;94507.69;;;31.89;15.93
7480;BME280;3781;42.272;22.658;2023-03-20T13:23:12;94514.56;;;31.30;16.43
7480;BME280;3781;42.272;22.658;2023-03-20T13:25:56;94502.06;;;30.93;16.59
7480;BME280;3781;42.272;22.658;2023-03-20T13:28:28;94501.50;;;31.68;16.45
7480;BME280;3781;42.272;22.658;2023-03-20T13:31:00;94494.03;;;30.93;16.94
7480;BME280;3781;42.272;22.658;2023-03-20T13:33:37;94489.88;;;29.65;17.61
7480;BME280;3781;42.272;22.658;2023-03-20T13:36:06;94480.38;;;29.74;17.30
7480;BME280;3781;42.272;22.658;2023-03-20T13:52:36;94463.31;;;30.64;16.50
7480;BME280;3781;42.272;22.658;2023-03-20T13:55:07;94467.66;;;30.80;16.40
7480;BME280;3781;42.272;22.658;2023-03-20T13:57:48;94460.28;;;31.12;16.23
7480;BME280;3781;42.272;22.658;2023-03-20T14:00:24;94457.00;;;30.95;16.52
7480;BME280;3781;42.272;22.658;2023-03-20T14:03:03;94461.88;;;31.08;16.44
7480;BME280;3781;42.272;22.658;2023-03-20T14:05:34;94454.72;;;30.62;16.34
7480;BME280;3781;42.272;22.658;2023-03-20T14:08:20;94455.84;;;30.29;17.22
7480;BME280;3781;42.272;22.658;2023-03-20T14:10:46;94454.53;;;29.32;17.66
7480;BME280;3781;42.272;22.658;2023-03-20T14:13:14;94450.88;;;29.16;17.70
7480;BME280;3781;42.272;22.658;2023-03-20T14:15:51;94450.31;;;27.78;18.50
7480;BME280;3781;42.272;22.658;2023-03-20T14:18:19;94451.22;;;26.94;19.97
7480;BME280;3781;42.272;22.658;2023-03-20T14:20:50;94442.50;;;26.58;20.04
7480;BME280;3781;42.272;22.658;2023-03-20T14:23:19;94438.09;;;25.36;21.38
7480;BME280;3781;42.272;22.658;2023-03-20T14:25:50;94440.53;;;23.94;21.25
7480;BME280;3781;42.272;22.658;2023-03-20T14:28:23;94445.94;;;24.24;21.91
7480;BME280;3781;42.272;22.658;2023-03-20T14:30:51;94442.63;;;24.11;21.43
7480;BME280;3781;42.272;22.658;2023-03-20T14:33:40;94444.28;;;23.62;22.01
7480;BME280;3781;42.272;22.658;2023-03-20T14:36:14;94440.03;;;23.30;21.62
7480;BME280;3781;42.272;22.658;2023-03-20T14:38:45;94435.97;;;23.03;22.98
7480;BME280;3781;42.272;22.658;2023-03-20T14:41:18;94427.66;;;22.93;22.60
7480;BME280;3781;42.272;22.658;2023-03-20T14:43:59;94424.00;;;22.94;22.54
7480;BME280;3781;42.272;22.658;2023-03-20T14:46:38;94411.09;;;23.29;22.52
7480;BME280;3781;42.272;22.658;2023-03-20T14:49:21;94412.28;;;23.08;22.74
7480;BME280;3781;42.272;22.658;2023-03-20T14:51:52;94413.41;;;22.94;22.99
7480;BME280;3781;42.272;22.658;2023-03-20T14:54:26;94414.81;;;22.59;22.84
7480;BME280;3781;42.272;22.658;2023-03-20T14:56:53;94406.25;;;22.57;23.49
7480;BME280;3781;42.272;22.658;2023-03-20T14:59:22;94414.88;;;22.45;22.70
7480;BME280;3781;42.272;22.658;2023-03-20T15:01:56;94412.72;;;22.74;23.67
7480;BME280;3781;42.272;22.658;2023-03-20T15:04:27;94413.34;;;23.00;24.07
7480;BME280;3781;42.272;22.658;2023-03-20T15:06:58;94417.97;;;22.80;22.80
7480;BME280;3781;42.272;22.658;2023-03-20T15:09:29;94407.50;;;22.61;23.86
7480;BME280;3781;42.272;22.658;2023-03-20T15:11:57;94411.50;;;22.70;23.40
7480;BME280;3781;42.272;22.658;2023-03-20T15:14:36;94414.50;;;22.35;23.98
7480;BME280;3781;42.272;22.658;2023-03-20T15:17:14;94400.19;;;22.49;24.40
7480;BME280;3781;42.272;22.658;2023-03-20T15:19:41;94419.06;;;22.15;24.20
7480;BME280;3781;42.272;22.658;2023-03-20T15:22:14;94417.34;;;21.57;25.02
7480;BME280;3781;42.272;22.658;2023-03-20T15:24:50;94404.34;;;21.23;25.37
7480;BME280;3781;42.272;22.658;2023-03-20T15:27:17;94423.06;;;21.28;26.08
7480;BME280;3781;42.272;22.658;2023-03-20T15:29:47;94421.44;;;21.14;25.74
7480;BME280;3781;42.272;22.658;2023-03-20T15:32:15;94420.84;;;21.38;25.75
7480;BME280;3781;42.272;22.658;2023-03-20T15:34:42;94413.91;;;21.50;25.28
7480;BME280;3781;42.272;22.658;2023-03-20T15:37:13;94412.44;;;21.60;25.33
7480;BME280;3781;42.272;22.658;2023-03-20T15:39:43;94417.53;;;21.49;25.08
7480;BME280;3781;42.272;22.658;2023-03-20T15:42:12;94415.56;;;21.31;26.36
7480;BME280;3781;42.272;22.658;2023-03-20T15:44:41;94408.56;;;20.71;28.79
7480;BME280;3781;42.272;22.658;2023-03-20T15:47:12;94414.59;;;20.52;28.87
7480;BME280;3781;42.272;22.658;2023-03-20T15:49:41;94402.09;;;20.20;30.52
7480;BME280;3781;42.272;22.658;2023-03-20T15:52:12;94397.66;;;19.80;30.25
7480;BME280;3781;42.272;22.658;2023-03-20T15:54:43;94398.34;;;19.61;31.00
7480;BME280;3781;42.272;22.658;2023-03-20T15:57:14;94408.81;;;19.47;31.75
7480;BME280;3781;42.272;22.658;2023-03-20T15:59:43;94405.94;;;19.42;31.88
7480;BME280;3781;42.272;22.658;2023-03-20T16:02:10;94409.25;;;19.30;32.10
7480;BME280;3781;42.272;22.658;2023-03-20T16:04:42;94413.84;;;19.21;32.15
7480;BME280;3781;42.272;22.658;2023-03-20T16:07:20;94425.06;;;19.02;32.67
7480;BME280;3781;42.272;22.658;2023-03-20T16:09:49;94424.31;;;18.87;33.41
7480;BME280;3781;42.272;22.658;2023-03-20T16:12:18;94434.09;;;18.72;33.74
7480;BME280;3781;42.272;22.658;2023-03-20T16:14:46;94424.53;;;18.50;34.33
7480;BME280;3781;42.272;22.658;2023-03-20T16:17:13;94433.63;;;18.33;34.64
7480;BME280;3781;42.272;22.658;2023-03-20T16:19:40;94433.84;;;18.17;34.25
7480;BME280;3781;42.272;22.658;2023-03-20T16:22:15;94435.84;;;18.15;34.94
7480;BME280;3781;42.272;22.658;2023-03-20T16:24:44;94434.41;;;17.97;35.10
7480;BME280;3781;42.272;22.658;2023-03-20T16:27:17;94427.19;;;17.85;35.39
7480;BME280;3781;42.272;22.658;2023-03-20T16:29:49;94422.81;;;17.77;34.84
7480;BME280;3781;42.272;22.658;2023-03-20T16:32:22;94433.53;;;17.61;35.31
7480;BME280;3781;42.272;22.658;2023-03-20T16:34:54;94432.25;;;17.57;34.85
7480;BME280;3781;42.272;22.658;2023-03-20T16:37:24;94403.59;;;17.33;34.97
7480;BME280;3781;42.272;22.658;2023-03-20T16:40:12;94413.47;;;17.31;35.29
7480;BME280;3781;42.272;22.658;2023-03-20T16:42:42;94440.56;;;17.46;34.97
7480;BME280;3781;42.272;22.658;2023-03-20T16:45:18;94411.63;;;17.17;35.28
7480;BME280;3781;42.272;22.658;2023-03-20T16:47:47;94437.44;;;17.28;35.67
7480;BME280;3781;42.272;22.658;2023-03-20T16:50:17;94431.00;;;17.16;35.61
7480;BME280;3781;42.272;22.658;2023-03-20T16:52:48;94435.13;;;17.10;35.98
7480;BME280;3781;42.272;22.658;2023-03-20T16:55:20;94437.66;;;17.04;36.45
7480;BME280;3781;42.272;22.658;2023-03-20T16:57:53;94445.38;;;16.83;36.79
7480;BME280;3781;42.272;22.658;2023-03-20T17:00:25;94441.81;;;16.76;36.72
7480;BME280;3781;42.272;22.658;2023-03-20T17:02:59;94450.88;;;16.88;36.81
7480;BME280;3781;42.272;22.658;2023-03-20T17:05:46;94449.38;;;16.93;36.49
7480;BME280;3781;42.272;22.658;2023-03-20T17:08:16;94447.81;;;16.84;37.08
7480;BME280;3781;42.272;22.658;2023-03-20T17:10:44;94453.59;;;16.80;37.15
7480;BME280;3781;42.272;22.658;2023-03-20T17:13:12;94452.31;;;16.76;36.85
7480;BME280;3781;42.272;22.658;2023-03-20T17:15:39;94452.84;;;16.71;37.17
7480;BME280;3781;42.272;22.658;2023-03-20T17:18:10;94453.41;;;16.58;37.55
7480;BME280;3781;42.272;22.658;2023-03-20T17:20:37;94436.56;;;16.53;37.32
7480;BME280;3781;42.272;22.658;2023-03-20T17:23:05;94458.47;;;16.60;37.85
7480;BME280;3781;42.272;22.658;2023-03-20T17:25:31;94450.78;;;16.58;37.59
7480;BME280;3781;42.272;22.658;2023-03-20T17:27:58;94455.78;;;16.68;36.95
7480;BME280;3781;42.272;22.658;2023-03-20T17:30:26;94456.28;;;16.72;36.99
7480;BME280;3781;42.272;22.658;2023-03-20T17:32:53;94458.13;;;16.63;37.49
7480;BME280;3781;42.272;22.658;2023-03-20T17:35:20;94457.31;;;16.63;36.80
7480;BME280;3781;42.272;22.658;2023-03-20T17:37:47;94452.91;;;16.63;37.08
7480;BME280;3781;42.272;22.658;2023-03-20T17:40:18;94448.81;;;16.61;37.17
7480;BME280;3781;42.272;22.658;2023-03-20T17:42:44;94464.16;;;16.72;36.53
7480;BME280;3781;42.272;22.658;2023-03-20T17:45:12;94459.72;;;16.72;36.36
7480;BME280;3781;42.272;22.658;2023-03-20T17:47:42;94460.69;;;16.71;36.53
7480;BME280;3781;42.272;22.658;2023-03-20T17:50:15;94462.56;;;16.63;36.94
7480;BME280;3781;42.272;22.658;2023-03-20T17:52:42;94462.69;;;16.69;36.50
7480;BME280;3781;42.272;22.658;2023-03-20T17:55:08;94468.25;;;16.66;36.59
7480;BME280;3781;42.272;22.658;2023-03-20T17:57:36;94460.25;;;16.68;36.58
7480;BME280;3781;42.272;22.658;2023-03-20T18:00:04;94451.66;;;16.74;36.67
7480;BME280;3781;42.272;22.658;2023-03-20T18:02:31;94466.94;;;16.70;36.01
7480;BME280;3781;42.272;22.658;2023-03-20T18:04:59;94470.09;;;16.66;36.42
7480;BME280;3781;42.272;22.658;2023-03-20T18:07:26;94468.38;;;16.50;37.04
7480;BME280;3781;42.272;22.658;2023-03-20T18:09:53;94469.38;;;16.10;39.23
7480;BME280;3781;42.272;22.658;2023-03-20T18:12:19;94465.25;;;15.77;39.61
7480;BME280;3781;42.272;22.658;2023-03-20T18:14:46;94466.84;;;15.86;39.41
7480;BME280;3781;42.272;22.658;2023-03-20T18:17:14;94462.06;;;15.98;38.68
7480;BME280;3781;42.272;22.658;2023-03-20T18:19:41;94468.59;;;16.02;38.78
7480;BME280;3781;42.272;22.658;2023-03-20T18:22:10;94462.66;;;16.08;38.63
7480;BME280;3781;42.272;22.658;2023-03-20T18:24:37;94464.50;;;15.99;38.82
7480;BME280;3781;42.272;22.658;2023-03-20T18:27:05;94468.13;;;15.98;38.97
7480;BME280;3781;42.272;22.658;2023-03-20T18:29:33;94462.19;;;16.04;39.12
7480;BME280;3781;42.272;22.658;2023-03-20T18:32:00;94468.97;;;15.91;39.04
7480;BME280;3781;42.272;22.658;2023-03-20T18:34:26;94466.41;;;15.74;39.24
7480;BME280;3781;42.272;22.658;2023-03-20T18:36:53;94467.91;;;15.53;39.93
7480;BME280;3781;42.272;22.658;2023-03-20T18:39:23;94471.84;;;15.49;40.35
7480;BME280;3781;42.272;22.658;2023-03-20T18:41:50;94469.09;;;15.34;40.25
7480;BME280;3781;42.272;22.658;2023-03-20T18:44:17;94469.91;;;15.35;40.26
7480;BME280;3781;42.272;22.658;2023-03-20T18:46:44;94475.13;;;15.35;40.25
7480;BME280;3781;42.272;22.658;2023-03-20T18:49:12;94472.34;;;15.36;39.99
7480;BME280;3781;42.272;22.658;2023-03-20T18:51:39;94478.72;;;15.34;40.06
7480;BME280;3781;42.272;22.658;2023-03-20T18:54:06;94484.97;;;15.33;39.96
7480;BME280;3781;42.272;22.658;2023-03-20T18:56:34;94473.84;;;15.31;40.15
7480;BME280;3781;42.272;22.658;2023-03-20T18:59:02;94480.38;;;15.19;40.58
7480;BME280;3781;42.272;22.658;2023-03-20T19:01:31;94484.31;;;15.15;40.96
7480;BME280;3781;42.272;22.658;2023-03-20T19:03:58;94467.31;;;15.10;40.19
7480;BME280;3781;42.272;22.658;2023-03-20T19:06:25;94482.03;;;15.20;40.14
7480;BME280;3781;42.272;22.658;2023-03-20T19:08:54;94484.63;;;15.11;40.20
7480;BME280;3781;42.272;22.658;2023-03-20T19:11:21;94477.94;;;14.93;40.71
7480;BME280;3781;42.272;22.658;2023-03-20T19:13:51;94473.19;;;14.88;40.58
7480;BME280;3781;42.272;22.658;2023-03-20T19:16:21;94480.38;;;14.70;41.35
7480;BME280;3781;42.272;22.658;2023-03-20T19:18:49;94485.25;;;14.57;41.80
7480;BME280;3781;42.272;22.658;2023-03-20T19:21:16;94480.53;;;14.77;40.84
7480;BME280;3781;42.272;22.658;2023-03-20T19:23:43;94481.53;;;14.68;40.96
7480;BME280;3781;42.272;22.658;2023-03-20T19:26:14;94482.63;;;14.49;41.88
7480;BME280;3781;42.272;22.658;2023-03-20T19:28:42;94478.97;;;14.26;41.97
7480;BME280;3781;42.272;22.658;2023-03-20T19:31:10;94491.31;;;14.16;42.41
7480;BME280;3781;42.272;22.658;2023-03-20T19:33:37;94485.06;;;14.01;43.38
7480;BME280;3781;42.272;22.658;2023-03-20T19:36:06;94496.69;;;14.06;43.09
7480;BME280;3781;42.272;22.658;2023-03-20T19:38:33;94494.19;;;13.97;43.47
7480;BME280;3781;42.272;22.658;2023-03-20T19:41:01;94501.59;;;13.68;44.32
7480;BME280;3781;42.272;22.658;2023-03-20T19:43:28;94500.25;;;13.64;44.55
7480;BME280;3781;42.272;22.658;2023-03-20T19:45:54;94499.47;;;13.37;45.44
7480;BME280;3781;42.272;22.658;2023-03-20T19:48:24;94498.19;;;13.41;45.73
7480;BME280;3781;42.272;22.658;2023-03-20T19:50:51;94502.81;;;13.55;45.93
7480;BME280;3781;42.272;22.658;2023-03-20T19:53:19;94500.84;;;13.57;45.42
7480;BME280;3781;42.272;22.658;2023-03-20T19:55:49;94501.88;;;13.65;44.83
7480;BME280;3781;42.272;22.658;2023-03-20T19:58:17;94500.06;;;13.57;45.32
7480;BME280;3781;42.272;22.658;2023-03-20T20:00:44;94491.75;;;13.10;46.00
7480;BME280;3781;42.272;22.658;2023-03-20T20:03:16;94499.94;;;13.15;46.08
7480;BME280;3781;42.272;22.658;2023-03-20T20:05:45;94481.84;;;13.14;45.86
7480;BME280;3781;42.272;22.658;2023-03-20T20:08:12;94488.66;;;13.32;45.53
7480;BME280;3781;42.272;22.658;2023-03-20T20:10:41;94503.78;;;13.54;45.33
7480;BME280;3781;42.272;22.658;2023-03-20T20:13:13;94508.03;;;13.55;45.26
7480;BME280;3781;42.272;22.658;2023-03-20T20:15:40;94514.56;;;13.59;44.88
7480;BME280;3781;42.272;22.658;2023-03-20T20:18:06;94506.34;;;13.46;45.52
7480;BME280;3781;42.272;22.658;2023-03-20T20:20:33;94503.03;;;13.36;45.77
7480;BME280;3781;42.272;22.658;2023-03-20T20:23:07;94509.72;;;13.13;46.14
7480;BME280;3781;42.272;22.658;2023-03-20T20:25:33;94504.97;;;13.09;46.35
7480;BME280;3781;42.272;22.658;2023-03-20T20:28:00;94505.25;;;12.70;47.94
7480;BME280;3781;42.272;22.658;2023-03-20T20:30:26;94516.69;;;12.60;47.38
7480;BME280;3781;42.272;22.658;2023-03-20T20:32:53;94507.59;;;12.46;48.44
7480;BME280;3781;42.272;22.658;2023-03-20T20:35:19;94517.13;;;12.38;48.29
7480;BME280;3781;42.272;22.658;2023-03-20T20:37:47;94514.06;;;12.25;49.45
7480;BME280;3781;42.272;22.658;2023-03-20T20:40:18;94512.31;;;12.43;47.69
7480;BME280;3781;42.272;22.658;2023-03-20T20:42:45;94512.75;;;12.38;48.12
7480;BME280;3781;42.272;22.658;2023-03-20T20:45:15;94515.16;;;12.67;46.44
7480;BME280;3781;42.272;22.658;2023-03-20T20:47:43;94515.97;;;12.67;47.69
7480;BME280;3781;42.272;22.658;2023-03-20T20:50:11;94510.09;;;12.48;48.52
7480;BME280;3781;42.272;22.658;2023-03-20T20:52:39;94504.09;;;12.38;48.21
7480;BME280;3781;42.272;22.658;2023-03-20T20:55:08;94504.34;;;12.62;47.21
7480;BME280;3781;42.272;22.658;2023-03-20T20:57:37;94504.13;;;12.73;46.38
7480;BME280;3781;42.272;22.658;2023-03-20T21:00:04;94508.38;;;12.92;46.31